sensor_id;sensor_type;location;lat;lon;timestamp;temperature;humidity
6988;DHT22;3534;49.960;8.018;2024-03-23T00:54:31;11.90;99.90
6988;DHT22;3534;49.960;8.018;2024-03-23T00:56:58;11.90;99.90
6988;DHT22;3534;49.960;8.018;2024-03-23T00:59:23;11.90;99.90
6988;DHT22;3534;49.960;8.018;2024-03-23T01:01:52;11.90;99.90
6988;DHT22;3534;49.960;8.018;2024-03-23T01:04:18;11.80;99.90
6988;DHT22;3534;49.960;8.018;2024-03-23T01:06:45;11.80;99.90
6988;DHT22;3534;49.960;8.018;2024-03-23T01:09:11;11.80;99.90
6988;DHT22;3534;49.960;8.018;2024-03-23T01:11:39;11.80;99.90
6988;DHT22;3534;49.960;8.018;2024-03-23T01:14:05;11.80;99.90
6988;DHT22;3534;49.960;8.018;2024-03-23T01:16:31;11.80;99.90
6988;DHT22;3534;49.960;8.018;2024-03-23T01:18:57;11.70;99.90
6988;DHT22;3534;49.960;8.018;2024-03-23T01:21:24;11.70;99.90
6988;DHT22;3534;49.960;8.018;2024-03-23T01:23:50;11.80;99.90
6988;DHT22;3534;49.960;8.018;2024-03-23T01:26:16;11.80;99.90
6988;DHT22;3534;49.960;8.018;2024-03-23T01:28:43;11.70;99.90
6988;DHT22;3534;49.960;8.018;2024-03-23T01:31:10;11.70;99.90
6988;DHT22;3534;49.960;8.018;2024-03-23T01:33:36;11.70;99.90
6988;DHT22;3534;49.960;8.018;2024-03-23T01:36:03;11.70;99.90
6988;DHT22;3534;49.960;8.018;2024-03-23T01:38:29;11.70;99.90
6988;DHT22;3534;49.960;8.018;2024-03-23T01:40:59;11.70;99.90
6988;DHT22;3534;49.960;8.018;2024-03-23T01:43:24;11.70;99.90
6988;DHT22;3534;49.960;8.018;2024-03-23T01:45:53;11.70;99.90
6988;DHT22;3534;49.960;8.018;2024-03-23T01:48:19;11.60;99.90
6988;DHT22;3534;49.960;8.018;2024-03-23T01:50:46;11.60;99.90
6988;DHT22;3534;49.960;8.018;2024-03-23T01:53:14;11.60;99.90
6988;DHT22;3534;49.960;8.018;2024-03-23T01:55:42;11.60;99.90
6988;DHT22;3534;49.960;8.018;2024-03-23T01:58:08;11.60;99.90
6988;DHT22;3534;49.960;8.018;2024-03-23T02:00:35;11.60;99.90
6988;DHT22;3534;49.960;8.018;2024-03-23T02:03:02;11.50;99.90
6988;DHT22;3534;49.960;8.018;2024-03-23T02:05:29;11.50;99.90
6988;DHT22;3534;49.960;8.018;2024-03-23T02:07:55;11.50;99.90
6988;DHT22;3534;49.960;8.018;2024-03-23T02:10:22;11.50;99.90
6988;DHT22;3534;49.960;8.018;2024-03-23T02:12:49;11.40;99.90
6988;DHT22;3534;49.960;8.018;2024-03-23T02:15:15;11.40;99.90
6988;DHT22;3534;49.960;8.018;2024-03-23T02:17:41;11.40;99.90
6988;DHT22;3534;49.960;8.018;2024-03-23T02:20:12;11.40;99.90
6988;DHT22;3534;49.960;8.018;2024-03-23T02:22:38;11.30;99.90
6988;DHT22;3534;49.960;8.018;2024-03-23T02:25:06;11.30;99.90
6988;DHT22;3534;49.960;8.018;2024-03-23T02:27:32;11.30;99.90
6988;DHT22;3534;49.960;8.018;2024-03-23T02:30:00;11.30;99.90
6988;DHT22;3534;49.960;8.018;2024-03-23T02:32:26;11.30;99.90
6988;DHT22;3534;49.960;8.018;2024-03-23T02:34:52;11.30;99.90
6988;DHT22;3534;49.960;8.018;2024-03-23T02:37:18;11.40;99.90
6988;DHT22;3534;49.960;8.018;2024-03-23T02:39:45;11.40;99.90
6988;DHT22;3534;49.960;8.018;2024-03-23T02:42:12;11.40;99.90
6988;DHT22;3534;49.960;8.018;2024-03-23T02:44:38;11.40;99.90
6988;DHT22;3534;49.960;8.018;2024-03-23T02:47:05;11.40;99.90
6988;DHT22;3534;49.960;8.018;2024-03-23T02:49:32;11.40;99.90
6988;DHT22;3534;49.960;8.018;2024-03-23T02:51:57;11.30;99.90
6988;DHT22;3534;49.960;8.018;2024-03-23T02:54:24;11.20;99.90
6988;DHT22;3534;49.960;8.018;2024-03-23T02:56:50;11.00;99.90
6988;DHT22;3534;49.960;8.018;2024-03-23T02:59:18;11.00;99.90
6988;DHT22;3534;49.960;8.018;2024-03-23T03:01:43;11.00;99.90
6988;DHT22;3534;49.960;8.018;2024-03-23T03:04:10;11.10;99.90
6988;DHT22;3534;49.960;8.018;2024-03-23T03:06:36;11.10;99.90
6988;DHT22;3534;49.960;8.018;2024-03-23T03:09:02;11.10;99.90
6988;DHT22;3534;49.960;8.018;2024-03-23T03:11:28;11.20;99.90
6988;DHT22;3534;49.960;8.018;2024-03-23T03:13:55;11.20;99.90
6988;DHT22;3534;49.960;8.018;2024-03-23T03:16:22;11.20;99.90
6988;DHT22;3534;49.960;8.018;2024-03-23T03:18:49;11.20;99.90
6988;DHT22;3534;49.960;8.018;2024-03-23T03:21:14;11.20;99.90
6988;DHT22;3534;49.960;8.018;2024-03-23T03:23:42;11.20;99.90
6988;DHT22;3534;49.960;8.018;2024-03-23T03:26:08;11.20;99.90
6988;DHT22;3534;49.960;8.018;2024-03-23T03:28:34;11.30;99.90
6988;DHT22;3534;49.960;8.018;2024-03-23T03:31:00;11.30;99.90
6988;DHT22;3534;49.960;8.018;2024-03-23T03:33:28;11.30;99.90
6988;DHT22;3534;49.960;8.018;2024-03-23T03:35:54;11.40;99.90
6988;DHT22;3534;49.960;8.018;2024-03-23T03:38:21;11.40;99.90
6988;DHT22;3534;49.960;8.018;2024-03-23T03:40:47;11.40;99.90
6988;DHT22;3534;49.960;8.018;2024-03-23T03:43:14;11.40;99.90
6988;DHT22;3534;49.960;8.018;2024-03-23T03:45:39;11.20;99.90
6988;DHT22;3534;49.960;8.018;2024-03-23T03:48:07;10.90;99.90
6988;DHT22;3534;49.960;8.018;2024-03-23T03:50:34;10.70;99.90
6988;DHT22;3534;49.960;8.018;2024-03-23T03:53:01;10.60;99.90
6988;DHT22;3534;49.960;8.018;2024-03-23T03:55:27;10.60;99.90
6988;DHT22;3534;49.960;8.018;2024-03-23T03:57:53;10.50;99.90
6988;DHT22;3534;49.960;8.018;2024-03-23T04:00:19;10.50;99.90
6988;DHT22;3534;49.960;8.018;2024-03-23T04:02:46;10.40;99.90
6988;DHT22;3534;49.960;8.018;2024-03-23T04:05:12;10.30;99.90
6988;DHT22;3534;49.960;8.018;2024-03-23T04:07:40;10.20;99.90
6988;DHT22;3534;49.960;8.018;2024-03-23T04:10:06;10.10;99.90
6988;DHT22;3534;49.960;8.018;2024-03-23T04:12:33;10.10;99.90
6988;DHT22;3534;49.960;8.018;2024-03-23T04:14:59;10.10;99.90
6988;DHT22;3534;49.960;8.018;2024-03-23T04:17:27;10.10;99.90
6988;DHT22;3534;49.960;8.018;2024-03-23T04:19:57;10.10;99.90
6988;DHT22;3534;49.960;8.018;2024-03-23T04:22:24;10.00;99.90
6988;DHT22;3534;49.960;8.018;2024-03-23T04:24:52;10.00;99.90
6988;DHT22;3534;49.960;8.018;2024-03-23T04:27:19;9.90;99.90
6988;DHT22;3534;49.960;8.018;2024-03-23T04:29:47;9.90;99.90
6988;DHT22;3534;49.960;8.018;2024-03-23T04:32:14;9.90;99.90
6988;DHT22;3534;49.960;8.018;2024-03-23T04:34:40;9.80;99.90
6988;DHT22;3534;49.960;8.018;2024-03-23T04:37:07;9.80;99.90
6988;DHT22;3534;49.960;8.018;2024-03-23T04:39:33;9.70;99.90
6988;DHT22;3534;49.960;8.018;2024-03-23T04:42:02;9.60;99.90
6988;DHT22;3534;49.960;8.018;2024-03-23T04:44:28;9.50;99.90
6988;DHT22;3534;49.960;8.018;2024-03-23T04:46:56;9.50;99.90
6988;DHT22;3534;49.960;8.018;2024-03-23T04:49:23;9.50;99.90
6988;DHT22;3534;49.960;8.018;2024-03-23T04:51:49;9.50;99.90
6988;DHT22;3534;49.960;8.018;2024-03-23T04:54:16;9.40;99.90
6988;DHT22;3534;49.960;8.018;2024-03-23T04:56:43;9.30;99.90
6988;DHT22;3534;49.960;8.018;2024-03-23T04:59:10;9.40;99.90
6988;DHT22;3534;49.960;8.018;2024-03-23T05:01:37;9.40;99.90
6988;DHT22;3534;49.960;8.018;2024-03-23T05:04:04;9.40;99.90
6988;DHT22;3534;49.960;8.018;2024-03-23T05:06:31;9.50;99.90
6988;DHT22;3534;49.960;8.018;2024-03-23T05:08:57;9.50;99.90
6988;DHT22;3534;49.960;8.018;2024-03-23T05:11:24;9.70;99.90
6988;DHT22;3534;49.960;8.018;2024-03-23T05:13:49;9.60;99.90
6988;DHT22;3534;49.960;8.018;2024-03-23T05:16:17;9.60;99.90
6988;DHT22;3534;49.960;8.018;2024-03-23T05:18:43;9.50;99.90
6988;DHT22;3534;49.960;8.018;2024-03-23T05:21:10;9.50;99.90
6988;DHT22;3534;49.960;8.018;2024-03-23T05:23:36;9.30;99.90
6988;DHT22;3534;49.960;8.018;2024-03-23T05:26:03;9.20;99.90
6988;DHT22;3534;49.960;8.018;2024-03-23T05:28:30;9.10;99.90
6988;DHT22;3534;49.960;8.018;2024-03-23T05:30:57;9.00;99.90
6988;DHT22;3534;49.960;8.018;2024-03-23T05:33:24;9.00;99.90
6988;DHT22;3534;49.960;8.018;2024-03-23T05:35:56;9.00;99.90
6988;DHT22;3534;49.960;8.018;2024-03-23T05:38:22;9.00;99.90
6988;DHT22;3534;49.960;8.018;2024-03-23T05:40:53;9.00;99.90
6988;DHT22;3534;49.960;8.018;2024-03-23T05:43:19;9.00;99.90
6988;DHT22;3534;49.960;8.018;2024-03-23T05:45:46;9.00;99.90
6988;DHT22;3534;49.960;8.018;2024-03-23T05:48:11;9.00;99.90
6988;DHT22;3534;49.960;8.018;2024-03-23T05:50:40;9.10;99.90
6988;DHT22;3534;49.960;8.018;2024-03-23T05:53:05;8.90;99.90
6988;DHT22;3534;49.960;8.018;2024-03-23T05:55:32;9.00;99.90
6988;DHT22;3534;49.960;8.018;2024-03-23T05:57:58;9.00;99.90
6988;DHT22;3534;49.960;8.018;2024-03-23T06:00:25;9.00;99.90
6988;DHT22;3534;49.960;8.018;2024-03-23T06:02:51;9.00;99.90
6988;DHT22;3534;49.960;8.018;2024-03-23T06:05:18;9.00;99.90
6988;DHT22;3534;49.960;8.018;2024-03-23T06:07:45;8.80;99.90
6988;DHT22;3534;49.960;8.018;2024-03-23T06:10:12;8.70;99.90
6988;DHT22;3534;49.960;8.018;2024-03-23T06:12:37;8.50;99.90
6988;DHT22;3534;49.960;8.018;2024-03-23T06:15:05;8.50;99.90
6988;DHT22;3534;49.960;8.018;2024-03-23T06:17:32;8.50;99.90
6988;DHT22;3534;49.960;8.018;2024-03-23T06:19:59;8.40;99.90
6988;DHT22;3534;49.960;8.018;2024-03-23T06:22:25;8.30;99.90
6988;DHT22;3534;49.960;8.018;2024-03-23T06:24:53;8.30;99.90
6988;DHT22;3534;49.960;8.018;2024-03-23T06:27:18;8.50;99.90
6988;DHT22;3534;49.960;8.018;2024-03-23T06:29:45;8.40;99.90
6988;DHT22;3534;49.960;8.018;2024-03-23T06:32:11;8.50;99.90
6988;DHT22;3534;49.960;8.018;2024-03-23T06:34:37;8.40;99.90
6988;DHT22;3534;49.960;8.018;2024-03-23T06:37:04;8.40;99.90
6988;DHT22;3534;49.960;8.018;2024-03-23T06:39:30;8.40;99.90
6988;DHT22;3534;49.960;8.018;2024-03-23T06:41:58;8.40;99.90
6988;DHT22;3534;49.960;8.018;2024-03-23T06:44:24;8.50;99.90
6988;DHT22;3534;49.960;8.018;2024-03-23T06:46:50;8.50;99.90
6988;DHT22;3534;49.960;8.018;2024-03-23T06:49:16;8.20;99.90
6988;DHT22;3534;49.960;8.018;2024-03-23T06:51:44;8.20;99.90
6988;DHT22;3534;49.960;8.018;2024-03-23T06:54:10;8.20;99.90
6988;DHT22;3534;49.960;8.018;2024-03-23T06:56:37;8.20;99.90
6988;DHT22;3534;49.960;8.018;2024-03-23T06:59:04;8.20;99.90
6988;DHT22;3534;49.960;8.018;2024-03-23T07:01:31;8.20;99.90
6988;DHT22;3534;49.960;8.018;2024-03-23T07:03:56;8.10;99.90
6988;DHT22;3534;49.960;8.018;2024-03-23T07:06:23;8.30;99.90
6988;DHT22;3534;49.960;8.018;2024-03-23T07:08:49;8.30;99.90
6988;DHT22;3534;49.960;8.018;2024-03-23T07:11:19;8.40;99.90
6988;DHT22;3534;49.960;8.018;2024-03-23T07:13:45;8.40;99.90
6988;DHT22;3534;49.960;8.018;2024-03-23T07:16:15;8.40;99.90
6988;DHT22;3534;49.960;8.018;2024-03-23T07:18:41;8.30;99.90
6988;DHT22;3534;49.960;8.018;2024-03-23T07:21:08;8.30;99.90
6988;DHT22;3534;49.960;8.018;2024-03-23T07:23:34;8.40;99.90
6988;DHT22;3534;49.960;8.018;2024-03-23T07:26:02;8.30;99.90
6988;DHT22;3534;49.960;8.018;2024-03-23T07:28:27;8.30;99.90
6988;DHT22;3534;49.960;8.018;2024-03-23T07:31:02;8.20;99.90
6988;DHT22;3534;49.960;8.018;2024-03-23T07:33:29;8.30;99.90
6988;DHT22;3534;49.960;8.018;2024-03-23T07:35:56;8.50;99.90
6988;DHT22;3534;49.960;8.018;2024-03-23T07:38:23;8.50;99.90
6988;DHT22;3534;49.960;8.018;2024-03-23T07:40:49;8.60;99.90
6988;DHT22;3534;49.960;8.018;2024-03-23T07:43:20;8.70;99.90
6988;DHT22;3534;49.960;8.018;2024-03-23T07:45:51;8.70;99.90
6988;DHT22;3534;49.960;8.018;2024-03-23T07:48:17;8.60;99.90
6988;DHT22;3534;49.960;8.018;2024-03-23T07:50:45;8.60;99.90
6988;DHT22;3534;49.960;8.018;2024-03-23T07:53:11;8.60;99.90
6988;DHT22;3534;49.960;8.018;2024-03-23T07:55:37;8.70;99.90
6988;DHT22;3534;49.960;8.018;2024-03-23T07:58:03;8.80;99.90
6988;DHT22;3534;49.960;8.018;2024-03-23T08:00:31;8.80;99.90
6988;DHT22;3534;49.960;8.018;2024-03-23T08:02:57;8.90;99.90
6988;DHT22;3534;49.960;8.018;2024-03-23T08:05:26;9.10;99.90
6988;DHT22;3534;49.960;8.018;2024-03-23T08:07:53;9.20;99.90
6988;DHT22;3534;49.960;8.018;2024-03-23T08:10:19;9.40;99.90
6988;DHT22;3534;49.960;8.018;2024-03-23T08:12:46;9.50;99.90
6988;DHT22;3534;49.960;8.018;2024-03-23T08:15:13;9.60;99.90
6988;DHT22;3534;49.960;8.018;2024-03-23T08:17:38;9.70;99.90
6988;DHT22;3534;49.960;8.018;2024-03-23T08:20:06;9.70;99.90
6988;DHT22;3534;49.960;8.018;2024-03-23T08:22:33;9.80;99.90
6988;DHT22;3534;49.960;8.018;2024-03-23T08:25:01;9.90;99.90
6988;DHT22;3534;49.960;8.018;2024-03-23T08:27:27;10.00;99.90
6988;DHT22;3534;49.960;8.018;2024-03-23T08:29:54;10.10;99.90
6988;DHT22;3534;49.960;8.018;2024-03-23T08:32:19;10.00;99.90
6988;DHT22;3534;49.960;8.018;2024-03-23T08:34:46;9.80;99.90
6988;DHT22;3534;49.960;8.018;2024-03-23T08:37:12;9.70;99.90
6988;DHT22;3534;49.960;8.018;2024-03-23T08:39:38;9.60;99.90
6988;DHT22;3534;49.960;8.018;2024-03-23T08:42:06;9.70;99.90
6988;DHT22;3534;49.960;8.018;2024-03-23T08:44:33;9.80;99.90
6988;DHT22;3534;49.960;8.018;2024-03-23T08:46:59;9.80;99.90
6988;DHT22;3534;49.960;8.018;2024-03-23T08:49:26;9.90;99.90
6988;DHT22;3534;49.960;8.018;2024-03-23T08:51:52;10.00;99.90
6988;DHT22;3534;49.960;8.018;2024-03-23T08:54:19;10.10;99.90
6988;DHT22;3534;49.960;8.018;2024-03-23T08:56:45;10.20;99.90
6988;DHT22;3534;49.960;8.018;2024-03-23T08:59:13;10.30;99.90
6988;DHT22;3534;49.960;8.018;2024-03-23T09:01:39;10.40;99.90
6988;DHT22;3534;49.960;8.018;2024-03-23T09:04:06;10.50;99.90
6988;DHT22;3534;49.960;8.018;2024-03-23T09:06:31;10.50;99.90
6988;DHT22;3534;49.960;8.018;2024-03-23T09:08:58;10.60;99.90
6988;DHT22;3534;49.960;8.018;2024-03-23T09:11:24;10.60;99.90
6988;DHT22;3534;49.960;8.018;2024-03-23T09:13:50;10.70;99.90
6988;DHT22;3534;49.960;8.018;2024-03-23T09:16:17;10.70;99.90
6988;DHT22;3534;49.960;8.018;2024-03-23T09:18:44;10.70;99.90
6988;DHT22;3534;49.960;8.018;2024-03-23T09:21:11;10.80;99.90
6988;DHT22;3534;49.960;8.018;2024-03-23T09:23:38;10.80;99.90
6988;DHT22;3534;49.960;8.018;2024-03-23T09:26:05;10.80;99.90
6988;DHT22;3534;49.960;8.018;2024-03-23T09:28:32;10.90;99.90
6988;DHT22;3534;49.960;8.018;2024-03-23T09:31:02;10.90;99.90
6988;DHT22;3534;49.960;8.018;2024-03-23T09:33:30;11.00;99.90
6988;DHT22;3534;49.960;8.018;2024-03-23T09:35:56;11.00;99.90
6988;DHT22;3534;49.960;8.018;2024-03-23T09:38:23;11.10;99.90
6988;DHT22;3534;49.960;8.018;2024-03-23T09:40:51;11.10;99.90
6988;DHT22;3534;49.960;8.018;2024-03-23T09:43:19;11.00;99.90
6988;DHT22;3534;49.960;8.018;2024-03-23T09:45:46;11.00;99.90
6988;DHT22;3534;49.960;8.018;2024-03-23T09:48:13;10.90;99.90
6988;DHT22;3534;49.960;8.018;2024-03-23T09:50:41;10.90;99.90
6988;DHT22;3534;49.960;8.018;2024-03-23T09:53:08;10.90;99.90
6988;DHT22;3534;49.960;8.018;2024-03-23T09:55:35;11.00;99.90
6988;DHT22;3534;49.960;8.018;2024-03-23T09:58:02;11.00;99.90
6988;DHT22;3534;49.960;8.018;2024-03-23T10:00:27;11.10;99.90
6988;DHT22;3534;49.960;8.018;2024-03-23T10:02:55;11.20;99.90
6988;DHT22;3534;49.960;8.018;2024-03-23T10:05:21;11.20;99.90
6988;DHT22;3534;49.960;8.018;2024-03-23T10:07:50;11.20;99.90
6988;DHT22;3534;49.960;8.018;2024-03-23T10:10:16;10.50;99.90
6988;DHT22;3534;49.960;8.018;2024-03-23T10:12:47;9.60;99.90
6988;DHT22;3534;49.960;8.018;2024-03-23T10:15:18;9.00;99.90
6988;DHT22;3534;49.960;8.018;2024-03-23T10:17:46;8.70;99.90
6988;DHT22;3534;49.960;8.018;2024-03-23T10:20:11;8.70;99.90
6988;DHT22;3534;49.960;8.018;2024-03-23T10:22:38;8.70;99.90
6988;DHT22;3534;49.960;8.018;2024-03-23T10:25:09;8.80;99.90
6988;DHT22;3534;49.960;8.018;2024-03-23T10:27:36;8.70;99.90
6988;DHT22;3534;49.960;8.018;2024-03-23T10:30:09;8.80;99.90
6988;DHT22;3534;49.960;8.018;2024-03-23T10:32:35;9.00;99.90
6988;DHT22;3534;49.960;8.018;2024-03-23T10:35:16;9.10;99.90
6988;DHT22;3534;49.960;8.018;2024-03-23T10:37:42;9.20;99.90
6988;DHT22;3534;49.960;8.018;2024-03-23T10:40:12;9.30;99.90
6988;DHT22;3534;49.960;8.018;2024-03-23T10:42:38;9.30;99.90
6988;DHT22;3534;49.960;8.018;2024-03-23T10:45:06;9.10;99.90
6988;DHT22;3534;49.960;8.018;2024-03-23T10:47:34;9.10;99.90
6988;DHT22;3534;49.960;8.018;2024-03-23T10:50:02;9.10;99.90
6988;DHT22;3534;49.960;8.018;2024-03-23T10:52:28;8.80;99.90
6988;DHT22;3534;49.960;8.018;2024-03-23T10:54:56;8.70;99.90
6988;DHT22;3534;49.960;8.018;2024-03-23T10:57:28;8.60;99.90
6988;DHT22;3534;49.960;8.018;2024-03-23T10:59:56;8.60;99.90
6988;DHT22;3534;49.960;8.018;2024-03-23T11:02:22;8.70;99.90
6988;DHT22;3534;49.960;8.018;2024-03-23T11:04:52;8.80;99.90
6988;DHT22;3534;49.960;8.018;2024-03-23T11:07:29;8.90;99.90
6988;DHT22;3534;49.960;8.018;2024-03-23T11:09:56;9.00;99.90
6988;DHT22;3534;49.960;8.018;2024-03-23T11:12:31;9.10;99.90
6988;DHT22;3534;49.960;8.018;2024-03-23T11:15:02;9.20;99.90
6988;DHT22;3534;49.960;8.018;2024-03-23T11:17:29;9.40;99.90
6988;DHT22;3534;49.960;8.018;2024-03-23T11:19:57;9.40;99.90
6988;DHT22;3534;49.960;8.018;2024-03-23T11:22:43;9.50;99.90
6988;DHT22;3534;49.960;8.018;2024-03-23T11:25:17;9.60;99.90
6988;DHT22;3534;49.960;8.018;2024-03-23T11:27:45;9.80;99.90
6988;DHT22;3534;49.960;8.018;2024-03-23T11:30:13;9.90;99.90
6988;DHT22;3534;49.960;8.018;2024-03-23T11:32:39;10.10;99.90
6988;DHT22;3534;49.960;8.018;2024-03-23T11:35:06;10.20;99.90
6988;DHT22;3534;49.960;8.018;2024-03-23T11:37:33;10.30;99.90
6988;DHT22;3534;49.960;8.018;2024-03-23T11:39:59;10.40;99.90
6988;DHT22;3534;49.960;8.018;2024-03-23T11:42:27;10.60;99.90
6988;DHT22;3534;49.960;8.018;2024-03-23T11:44:55;10.80;99.90
6988;DHT22;3534;49.960;8.018;2024-03-23T11:47:20;11.10;99.90
6988;DHT22;3534;49.960;8.018;2024-03-23T11:49:48;11.30;99.90
6988;DHT22;3534;49.960;8.018;2024-03-23T11:52:16;11.50;99.90
6988;DHT22;3534;49.960;8.018;2024-03-23T11:54:43;11.80;99.90
6988;DHT22;3534;49.960;8.018;2024-03-23T11:57:09;12.00;99.90
6988;DHT22;3534;49.960;8.018;2024-03-23T11:59:36;12.30;99.90
6988;DHT22;3534;49.960;8.018;2024-03-23T12:02:08;12.60;99.90
6988;DHT22;3534;49.960;8.018;2024-03-23T12:04:36;12.70;99.90
6988;DHT22;3534;49.960;8.018;2024-03-23T12:07:15;12.50;99.90
6988;DHT22;3534;49.960;8.018;2024-03-23T12:09:44;12.50;99.90
6988;DHT22;3534;49.960;8.018;2024-03-23T12:12:14;12.70;99.90
6988;DHT22;3534;49.960;8.018;2024-03-23T12:14:42;12.90;99.90
6988;DHT22;3534;49.960;8.018;2024-03-23T12:17:13;13.10;99.90
6988;DHT22;3534;49.960;8.018;2024-03-23T12:19:41;13.20;99.90
6988;DHT22;3534;49.960;8.018;2024-03-23T12:22:07;13.30;99.90
6988;DHT22;3534;49.960;8.018;2024-03-23T12:24:34;13.40;99.90
6988;DHT22;3534;49.960;8.018;2024-03-23T12:27:01;13.30;99.90
6988;DHT22;3534;49.960;8.018;2024-03-23T12:29:29;13.20;99.90
6988;DHT22;3534;49.960;8.018;2024-03-23T12:31:55;12.90;99.90
6988;DHT22;3534;49.960;8.018;2024-03-23T12:34:24;12.00;99.90
6988;DHT22;3534;49.960;8.018;2024-03-23T12:36:49;11.40;99.90
6988;DHT22;3534;49.960;8.018;2024-03-23T12:39:16;10.90;99.90
6988;DHT22;3534;49.960;8.018;2024-03-23T12:41:42;10.60;99.90
6988;DHT22;3534;49.960;8.018;2024-03-23T12:44:09;9.90;99.90
6988;DHT22;3534;49.960;8.018;2024-03-23T12:46:37;9.70;99.90
6988;DHT22;3534;49.960;8.018;2024-03-23T12:49:04;9.70;99.90
6988;DHT22;3534;49.960;8.018;2024-03-23T12:51:31;9.90;99.90
6988;DHT22;3534;49.960;8.018;2024-03-23T12:53:58;10.00;99.90
6988;DHT22;3534;49.960;8.018;2024-03-23T12:56:23;10.10;99.90
6988;DHT22;3534;49.960;8.018;2024-03-23T12:58:50;10.30;99.90
6988;DHT22;3534;49.960;8.018;2024-03-23T13:01:17;10.50;99.90
6988;DHT22;3534;49.960;8.018;2024-03-23T13:03:46;10.70;99.90
6988;DHT22;3534;49.960;8.018;2024-03-23T13:06:12;11.20;99.90
6988;DHT22;3534;49.960;8.018;2024-03-23T13:08:40;11.50;99.90
6988;DHT22;3534;49.960;8.018;2024-03-23T13:11:06;12.00;99.90
6988;DHT22;3534;49.960;8.018;2024-03-23T13:13:34;12.60;99.90
6988;DHT22;3534;49.960;8.018;2024-03-23T13:15:59;13.10;99.90
6988;DHT22;3534;49.960;8.018;2024-03-23T13:18:27;13.40;99.90
6988;DHT22;3534;49.960;8.018;2024-03-23T13:20:53;13.40;99.90
6988;DHT22;3534;49.960;8.018;2024-03-23T13:23:20;13.30;99.90
6988;DHT22;3534;49.960;8.018;2024-03-23T13:25:51;13.10;99.90
6988;DHT22;3534;49.960;8.018;2024-03-23T13:28:18;13.00;99.90
6988;DHT22;3534;49.960;8.018;2024-03-23T13:30:50;12.70;99.90
6988;DHT22;3534;49.960;8.018;2024-03-23T13:33:17;12.60;99.90
6988;DHT22;3534;49.960;8.018;2024-03-23T13:35:49;12.40;99.90
6988;DHT22;3534;49.960;8.018;2024-03-23T13:38:16;12.30;99.90
6988;DHT22;3534;49.960;8.018;2024-03-23T13:40:53;12.40;99.90
6988;DHT22;3534;49.960;8.018;2024-03-23T13:43:20;12.50;99.90
6988;DHT22;3534;49.960;8.018;2024-03-23T13:45:47;12.70;99.90
6988;DHT22;3534;49.960;8.018;2024-03-23T13:48:15;12.80;99.90
6988;DHT22;3534;49.960;8.018;2024-03-23T13:50:41;13.00;99.90
6988;DHT22;3534;49.960;8.018;2024-03-23T13:53:08;13.30;99.90
6988;DHT22;3534;49.960;8.018;2024-03-23T13:55:35;13.40;99.90
6988;DHT22;3534;49.960;8.018;2024-03-23T13:58:04;13.30;99.90
6988;DHT22;3534;49.960;8.018;2024-03-23T14:00:29;13.10;99.90
6988;DHT22;3534;49.960;8.018;2024-03-23T14:02:57;13.00;99.90
6988;DHT22;3534;49.960;8.018;2024-03-23T14:05:23;13.10;99.90
6988;DHT22;3534;49.960;8.018;2024-03-23T14:07:50;13.20;99.90
6988;DHT22;3534;49.960;8.018;2024-03-23T14:10:16;13.30;99.90
6988;DHT22;3534;49.960;8.018;2024-03-23T14:12:43;13.40;99.90
6988;DHT22;3534;49.960;8.018;2024-03-23T14:15:10;13.40;99.90
6988;DHT22;3534;49.960;8.018;2024-03-23T14:17:36;13.40;99.90
6988;DHT22;3534;49.960;8.018;2024-03-23T14:20:03;13.70;99.90
6988;DHT22;3534;49.960;8.018;2024-03-23T14:22:30;13.80;99.90
6988;DHT22;3534;49.960;8.018;2024-03-23T14:24:56;13.90;99.90
6988;DHT22;3534;49.960;8.018;2024-03-23T14:27:23;14.00;99.90
6988;DHT22;3534;49.960;8.018;2024-03-23T14:29:49;14.20;99.90
6988;DHT22;3534;49.960;8.018;2024-03-23T14:32:17;14.40;99.90
6988;DHT22;3534;49.960;8.018;2024-03-23T14:34:43;14.50;99.90
6988;DHT22;3534;49.960;8.018;2024-03-23T14:37:09;14.30;99.90
6988;DHT22;3534;49.960;8.018;2024-03-23T14:39:35;14.20;99.90
6988;DHT22;3534;49.960;8.018;2024-03-23T14:42:05;13.90;99.90
6988;DHT22;3534;49.960;8.018;2024-03-23T14:44:31;13.50;99.90
6988;DHT22;3534;49.960;8.018;2024-03-23T14:46:58;13.30;99.90
6988;DHT22;3534;49.960;8.018;2024-03-23T14:49:25;13.10;99.90
6988;DHT22;3534;49.960;8.018;2024-03-23T14:51:52;13.00;99.90
6988;DHT22;3534;49.960;8.018;2024-03-23T14:54:18;12.80;99.90
6988;DHT22;3534;49.960;8.018;2024-03-23T14:56:44;12.80;99.90
6988;DHT22;3534;49.960;8.018;2024-03-23T14:59:10;12.60;99.90
6988;DHT22;3534;49.960;8.018;2024-03-23T15:01:37;12.70;99.90
6988;DHT22;3534;49.960;8.018;2024-03-23T15:04:03;12.70;99.90
6988;DHT22;3534;49.960;8.018;2024-03-23T15:06:31;12.50;99.90
6988;DHT22;3534;49.960;8.018;2024-03-23T15:08:56;12.30;99.90
6988;DHT22;3534;49.960;8.018;2024-03-23T15:11:23;12.20;99.90
6988;DHT22;3534;49.960;8.018;2024-03-23T15:13:50;12.10;99.90
6988;DHT22;3534;49.960;8.018;2024-03-23T15:16:17;12.00;99.90
6988;DHT22;3534;49.960;8.018;2024-03-23T15:18:43;11.90;99.90
6988;DHT22;3534;49.960;8.018;2024-03-23T15:21:10;11.90;99.90
6988;DHT22;3534;49.960;8.018;2024-03-23T15:23:38;12.20;99.90
6988;DHT22;3534;49.960;8.018;2024-03-23T15:26:05;12.80;99.90
6988;DHT22;3534;49.960;8.018;2024-03-23T15:28:31;13.30;99.90
6988;DHT22;3534;49.960;8.018;2024-03-23T15:31:07;13.90;99.90
6988;DHT22;3534;49.960;8.018;2024-03-23T15:33:33;14.50;99.90
6988;DHT22;3534;49.960;8.018;2024-03-23T15:36:00;14.90;99.90
6988;DHT22;3534;49.960;8.018;2024-03-23T15:38:26;15.20;99.90
6988;DHT22;3534;49.960;8.018;2024-03-23T15:40:54;15.30;99.90
6988;DHT22;3534;49.960;8.018;2024-03-23T15:43:19;15.40;99.90
6988;DHT22;3534;49.960;8.018;2024-03-23T15:45:54;15.10;99.90
6988;DHT22;3534;49.960;8.018;2024-03-23T15:48:20;14.20;99.90
6988;DHT22;3534;49.960;8.018;2024-03-23T15:50:50;13.80;99.90
6988;DHT22;3534;49.960;8.018;2024-03-23T15:53:17;13.50;99.90
6988;DHT22;3534;49.960;8.018;2024-03-23T15:55:44;13.20;99.90
6988;DHT22;3534;49.960;8.018;2024-03-23T15:58:11;13.20;99.90
6988;DHT22;3534;49.960;8.018;2024-03-23T16:00:38;13.10;99.90
6988;DHT22;3534;49.960;8.018;2024-03-23T16:03:04;13.00;99.90
6988;DHT22;3534;49.960;8.018;2024-03-23T16:05:31;12.80;99.90
6988;DHT22;3534;49.960;8.018;2024-03-23T16:07:57;12.70;99.90
6988;DHT22;3534;49.960;8.018;2024-03-23T16:10:23;12.30;99.90
6988;DHT22;3534;49.960;8.018;2024-03-23T16:12:49;12.20;99.90
6988;DHT22;3534;49.960;8.018;2024-03-23T16:15:17;12.30;99.90
6988;DHT22;3534;49.960;8.018;2024-03-23T16:17:43;12.30;99.90
6988;DHT22;3534;49.960;8.018;2024-03-23T16:20:10;12.40;99.90
6988;DHT22;3534;49.960;8.018;2024-03-23T16:22:36;12.50;99.90
6988;DHT22;3534;49.960;8.018;2024-03-23T16:25:04;12.50;99.90
6988;DHT22;3534;49.960;8.018;2024-03-23T16:27:29;12.40;99.90
6988;DHT22;3534;49.960;8.018;2024-03-23T16:29:57;12.30;99.90
6988;DHT22;3534;49.960;8.018;2024-03-23T16:32:24;12.30;99.90
6988;DHT22;3534;49.960;8.018;2024-03-23T16:34:52;12.00;99.90
6988;DHT22;3534;49.960;8.018;2024-03-23T16:37:18;12.00;99.90
6988;DHT22;3534;49.960;8.018;2024-03-23T16:39:45;11.90;99.90
6988;DHT22;3534;49.960;8.018;2024-03-23T16:42:10;11.90;99.90
6988;DHT22;3534;49.960;8.018;2024-03-23T16:44:37;11.90;99.90
6988;DHT22;3534;49.960;8.018;2024-03-23T16:47:04;11.90;99.90
6988;DHT22;3534;49.960;8.018;2024-03-23T16:49:34;11.90;99.90
6988;DHT22;3534;49.960;8.018;2024-03-23T16:51:59;11.90;99.90
6988;DHT22;3534;49.960;8.018;2024-03-23T16:54:26;11.80;99.90
6988;DHT22;3534;49.960;8.018;2024-03-23T16:56:52;11.70;99.90
6988;DHT22;3534;49.960;8.018;2024-03-23T16:59:19;11.60;99.90